createdAt,value
2022-09-02T00:01:24.591Z,18.87
2022-09-02T00:06:14.742Z,18.86
2022-09-02T00:11:06.694Z,18.84
2022-09-02T00:16:00.252Z,18.81
2022-09-02T00:20:51.261Z,18.77
2022-09-02T00:25:42.325Z,18.72
2022-09-02T00:30:33.149Z,18.67
2022-09-02T00:35:26.277Z,18.64
2022-09-02T00:40:17.238Z,18.62
2022-09-02T00:45:08.748Z,18.61
2022-09-02T00:49:59.065Z,18.55
2022-09-02T00:54:53.160Z,18.51
2022-09-02T00:59:49.703Z,18.47
2022-09-02T01:04:39.599Z,18.44
2022-09-02T01:09:32.350Z,18.43
2022-09-02T01:14:28.585Z,18.42
2022-09-02T01:19:23.285Z,18.40
2022-09-02T01:24:16.260Z,18.34
2022-09-02T01:29:06.361Z,18.33
2022-09-02T01:33:56.793Z,18.33
2022-09-02T01:38:48.327Z,18.31
2022-09-02T01:43:41.426Z,18.29
2022-09-02T01:48:32.295Z,18.27
2022-09-02T01:53:24.459Z,18.21
2022-09-02T01:58:16.389Z,18.17
2022-09-02T02:03:09.364Z,18.15
2022-09-02T02:07:59.957Z,18.11
2022-09-02T02:12:50.569Z,18.01
2022-09-02T02:17:44.740Z,17.95
2022-09-02T02:22:38.539Z,17.99
2022-09-02T02:27:29.275Z,17.93
2022-09-02T02:32:26.520Z,17.83
2022-09-02T02:37:21.092Z,17.83
2022-09-02T02:42:17.634Z,17.75
2022-09-02T02:47:08.566Z,17.74
2022-09-02T02:51:59.382Z,17.71
2022-09-02T02:56:50.931Z,17.67
2022-09-02T03:01:44.551Z,17.64
2022-09-02T03:06:36.363Z,17.60
2022-09-02T03:11:28.634Z,17.53
2022-09-02T03:16:20.479Z,17.46
2022-09-02T03:21:16.427Z,17.81
2022-09-02T03:26:13.492Z,17.57
2022-09-02T03:31:04.366Z,17.55
2022-09-02T03:35:55.308Z,17.49
2022-09-02T03:40:48.989Z,17.48
2022-09-02T03:45:42.153Z,17.39
2022-09-02T03:50:37.066Z,17.34
2022-09-02T03:55:28.663Z,17.31
2022-09-02T04:00:24.307Z,17.27
2022-09-02T04:05:16.013Z,17.22
2022-09-02T04:10:08.873Z,17.18
2022-09-02T04:15:01.070Z,17.12
2022-09-02T04:19:53.900Z,17.09
2022-09-02T04:24:44.217Z,17.02
2022-09-02T04:29:34.839Z,16.99
2022-09-02T04:34:25.012Z,16.97
2022-09-02T04:39:18.855Z,16.95
2022-09-02T04:44:10.126Z,16.91
2022-09-02T04:49:04.121Z,16.89
2022-09-02T04:53:56.042Z,16.87
2022-09-02T04:58:50.567Z,16.87
2022-09-02T05:03:44.128Z,16.85
2022-09-02T05:08:36.684Z,16.85
2022-09-02T05:13:29.579Z,16.83
2022-09-02T05:18:24.592Z,16.79
2022-09-02T05:23:16.691Z,16.74
2022-09-02T05:28:09.275Z,16.73
2022-09-02T05:33:00.366Z,16.72
2022-09-02T05:37:58.684Z,16.70
2022-09-02T05:42:51.372Z,16.69
2022-09-02T05:47:41.787Z,16.68
2022-09-02T05:52:32.664Z,16.70
2022-09-02T05:57:26.147Z,16.68
2022-09-02T06:02:21.460Z,16.67
2022-09-02T06:07:13.755Z,16.66
2022-09-02T06:12:09.016Z,16.63
2022-09-02T06:17:03.179Z,16.61
2022-09-02T06:22:11.605Z,16.62
2022-09-02T06:27:03.497Z,16.67
2022-09-02T06:31:55.306Z,16.72
2022-09-02T06:36:51.942Z,16.75
2022-09-02T06:41:44.624Z,16.80
2022-09-02T06:46:38.003Z,16.86
2022-09-02T06:51:30.562Z,16.92
2022-09-02T06:56:26.159Z,16.93
2022-09-02T07:01:21.823Z,16.88
2022-09-02T07:06:13.224Z,16.93
2022-09-02T07:11:09.479Z,16.95
2022-09-02T07:16:01.659Z,17.00
2022-09-02T07:20:52.027Z,17.06
2022-09-02T07:25:46.837Z,17.11
2022-09-02T07:30:37.242Z,17.16
2022-09-02T07:35:35.893Z,17.23
2022-09-02T07:40:26.811Z,17.31
2022-09-02T07:45:18.377Z,17.40
2022-09-02T07:50:20.250Z,17.50
2022-09-02T07:55:18.901Z,17.63
2022-09-02T08:00:12.713Z,17.74
2022-09-02T08:05:10.185Z,17.90
2022-09-02T08:10:01.401Z,18.12
2022-09-02T08:14:54.574Z,18.28
2022-09-02T08:19:45.207Z,18.44
2022-09-02T08:24:35.512Z,18.62
2022-09-02T08:29:25.051Z,18.84
2022-09-02T08:34:17.748Z,19.09
2022-09-02T08:39:08.108Z,19.30
2022-09-02T08:43:59.982Z,19.43
2022-09-02T08:48:53.021Z,19.65
2022-09-02T08:53:51.317Z,19.83
2022-09-02T08:58:42.699Z,20.14
2022-09-02T09:03:37.033Z,20.30
2022-09-02T09:08:31.845Z,20.41
2022-09-02T09:13:40.766Z,20.57
2022-09-02T09:18:35.546Z,20.76
2022-09-02T09:23:34.000Z,20.91
2022-09-02T09:28:28.273Z,21.15
2022-09-02T09:33:24.245Z,21.33
2022-09-02T09:38:15.717Z,21.58
2022-09-02T09:43:16.315Z,21.81
2022-09-02T09:48:19.324Z,22.01
2022-09-02T09:53:19.130Z,22.28
2022-09-02T09:58:12.582Z,22.57
2022-09-02T10:03:04.087Z,22.85
2022-09-02T10:07:59.447Z,23.28
2022-09-02T10:12:50.416Z,23.74
2022-09-02T10:17:44.629Z,24.15
2022-09-02T10:22:58.434Z,24.53
2022-09-02T10:27:56.363Z,24.72
2022-09-02T10:32:56.212Z,24.78
2022-09-02T10:38:01.027Z,25.02
2022-09-02T10:43:00.080Z,25.27
2022-09-02T10:47:54.788Z,25.42
2022-09-02T10:52:56.791Z,25.65
2022-09-02T10:57:49.524Z,25.87
2022-09-02T11:02:45.024Z,25.72
2022-09-02T11:07:39.402Z,25.59
2022-09-02T11:12:32.057Z,25.62
2022-09-02T11:17:24.913Z,25.79
2022-09-02T11:22:25.517Z,25.97
2022-09-02T11:27:39.018Z,25.99
2022-09-02T11:32:34.444Z,26.01
2022-09-02T11:37:33.002Z,26.14
2022-09-02T11:42:29.878Z,26.26
2022-09-02T11:47:45.540Z,26.50
2022-09-02T11:52:58.134Z,26.54
2022-09-02T11:57:54.346Z,26.66
2022-09-02T12:02:48.572Z,26.57
2022-09-02T12:07:52.247Z,26.71
2022-09-02T12:12:56.756Z,27.00
2022-09-02T12:18:17.405Z,27.15
2022-09-02T12:23:10.436Z,27.24
2022-09-02T12:28:13.696Z,27.15
2022-09-02T12:33:15.226Z,27.15
2022-09-02T12:38:19.589Z,27.32
2022-09-02T12:43:27.839Z,27.35
2022-09-02T12:48:30.311Z,27.45
2022-09-02T12:53:32.771Z,27.58
2022-09-02T12:58:25.570Z,27.61
2022-09-02T13:03:28.369Z,27.60
2022-09-02T13:08:32.504Z,27.56
2022-09-02T13:13:44.625Z,27.57
2022-09-02T13:18:54.503Z,27.56
2022-09-02T13:23:55.517Z,27.61
2022-09-02T13:29:04.705Z,27.61
2022-09-02T13:34:05.606Z,27.66
2022-09-02T13:38:56.301Z,27.61
2022-09-02T13:43:46.977Z,27.59
2022-09-02T13:48:41.094Z,27.63
2022-09-02T13:53:49.258Z,27.62
2022-09-02T13:58:47.555Z,27.62
2022-09-02T14:03:37.440Z,27.67
2022-09-02T14:08:29.409Z,27.76
2022-09-02T14:13:22.206Z,27.86
2022-09-02T14:18:14.522Z,27.81
2022-09-02T14:23:08.143Z,27.81
2022-09-02T14:27:58.830Z,27.90
2022-09-02T14:32:50.896Z,27.98
2022-09-02T14:37:51.641Z,28.04
2022-09-02T14:42:48.317Z,27.99
2022-09-02T14:47:40.004Z,28.00
2022-09-02T14:52:33.510Z,27.97
2022-09-02T14:57:28.428Z,27.86
2022-09-02T15:02:33.681Z,27.78
2022-09-02T15:07:23.283Z,27.76
2022-09-02T15:12:20.057Z,27.80
2022-09-02T15:17:12.092Z,27.85
2022-09-02T15:22:02.479Z,27.84
2022-09-02T15:26:53.349Z,27.79
2022-09-02T15:31:48.396Z,27.75
2022-09-02T15:36:40.991Z,27.70
2022-09-02T15:41:32.306Z,27.61
2022-09-02T15:46:24.131Z,27.59
2022-09-02T15:51:18.062Z,27.56
2022-09-02T15:56:08.669Z,27.45
2022-09-02T16:00:59.124Z,27.30
2022-09-02T16:05:49.385Z,27.20
2022-09-02T16:10:42.493Z,27.18
2022-09-02T16:15:34.468Z,27.20
2022-09-02T16:20:25.761Z,27.23
2022-09-02T16:25:15.641Z,27.22
2022-09-02T16:30:08.963Z,27.18
2022-09-02T16:34:59.099Z,27.10
2022-09-02T16:39:50.051Z,26.99
2022-09-02T16:44:41.749Z,26.90
2022-09-02T16:49:34.830Z,26.77
2022-09-02T16:54:30.681Z,26.71
2022-09-02T16:59:22.384Z,26.67
2022-09-02T17:04:17.176Z,26.61
2022-09-02T17:09:10.582Z,26.55
2022-09-02T17:14:02.285Z,26.47
2022-09-02T17:18:53.788Z,26.37
2022-09-02T17:23:45.164Z,26.24
2022-09-02T17:28:47.043Z,26.14
2022-09-02T17:33:37.245Z,26.04
2022-09-02T17:38:27.656Z,25.91
2022-09-02T17:43:18.069Z,25.78
2022-09-02T17:48:35.403Z,25.67
2022-09-02T17:53:24.306Z,25.55
2022-09-02T17:58:16.990Z,25.41
2022-09-02T18:03:28.978Z,25.28
2022-09-02T18:08:28.598Z,25.18
2022-09-02T18:13:22.251Z,25.05
2022-09-02T18:18:14.154Z,24.92
2022-09-02T18:23:19.393Z,24.84
2022-09-02T18:28:22.908Z,24.77
2022-09-02T18:33:28.092Z,24.67
2022-09-02T18:38:30.272Z,24.55
2022-09-02T18:43:27.734Z,24.44
2022-09-02T18:48:19.963Z,24.37
2022-09-02T18:53:13.292Z,24.30
2022-09-02T18:58:09.217Z,24.18
2022-09-02T19:03:05.507Z,24.05
2022-09-02T19:08:13.357Z,23.97
2022-09-02T19:13:04.861Z,23.88
2022-09-02T19:17:55.359Z,23.78
2022-09-02T19:22:51.601Z,23.71
2022-09-02T19:27:43.420Z,23.61
2022-09-02T19:32:35.111Z,23.47
2022-09-02T19:37:26.101Z,23.38
2022-09-02T19:42:23.966Z,23.25
2022-09-02T19:48:03.110Z,23.17
2022-09-02T19:52:25.625Z,23.10
2022-09-02T19:57:18.713Z,23.05
2022-09-02T20:02:09.035Z,22.97
2022-09-02T20:07:00.444Z,22.96
2022-09-02T20:11:51.445Z,22.90
2022-09-02T20:16:44.948Z,22.84
2022-09-02T20:21:38.609Z,22.78
2022-09-02T20:26:35.429Z,22.69
2022-09-02T20:31:32.109Z,22.63
2022-09-02T20:36:32.071Z,22.58
2022-09-02T20:41:27.601Z,22.53
2022-09-02T20:46:24.860Z,22.46
2022-09-02T20:51:19.457Z,22.43
2022-09-02T20:56:20.944Z,22.34
2022-09-02T21:01:11.915Z,22.24
2022-09-02T21:06:03.706Z,22.16
2022-09-02T21:10:57.302Z,22.11
2022-09-02T21:15:52.234Z,22.06
2022-09-02T21:20:47.329Z,21.98
2022-09-02T21:25:44.169Z,21.90
2022-09-02T21:30:38.891Z,21.84
2022-09-02T21:35:35.040Z,21.80
2022-09-02T21:40:28.940Z,21.74
2022-09-02T21:45:22.299Z,21.68
2022-09-02T21:50:18.688Z,21.64
2022-09-02T21:55:22.287Z,21.58
2022-09-02T22:00:16.134Z,21.54
2022-09-02T22:05:09.819Z,21.45
2022-09-02T22:10:05.998Z,21.37
2022-09-02T22:15:03.116Z,21.31
2022-09-02T22:19:58.033Z,21.24
2022-09-02T22:24:48.530Z,21.18
2022-09-02T22:29:44.509Z,21.11
2022-09-02T22:34:42.415Z,21.03
2022-09-02T22:39:36.058Z,20.97
2022-09-02T22:44:55.147Z,20.88
2022-09-02T22:50:10.738Z,20.80
2022-09-02T22:55:00.847Z,20.73
2022-09-02T23:00:02.062Z,20.67
2022-09-02T23:05:06.508Z,20.65
2022-09-02T23:09:59.236Z,20.60
2022-09-02T23:14:57.732Z,20.53
2022-09-02T23:19:53.959Z,20.50
2022-09-02T23:24:49.760Z,20.46
2022-09-02T23:29:41.709Z,20.42
2022-09-02T23:34:41.684Z,20.36
2022-09-02T23:39:44.454Z,20.32
2022-09-02T23:44:37.250Z,20.28
2022-09-02T23:49:33.982Z,20.25
2022-09-02T23:54:32.245Z,20.22
2022-09-02T23:59:30.675Z,20.17
